Time;durP1;ratioP1;P1;durP2;ratioP2;P2;SDS_P1;SDS_P2;PMS_P1;PMS_P2;Temp;Humidity;BMP_temperature;BMP_pressure;BME280_temperature;BME280_humidity;BME280_pressure;Samples;Min_cycle;Max_cycle;Signal;HPM_P1;HPM_P2
2023/01/30 00:02:09;;;;;;;;;;;20.50;43.70;;;;;;6105464;29;20379;-50
2023/01/30 00:05:10;;;;;;;;;;;19.90;43.50;;;;;;6105304;29;19982;-50
2023/01/30 00:08:13;;;;;;;;;;;20.00;43.40;;;;;;6105565;29;20086;-48
2023/01/30 00:11:15;;;;;;;;;;;20.10;43.00;;;;;;6105176;29;19927;-51
2023/01/30 00:14:16;;;;;;;;;;;19.80;43.30;;;;;;6104502;29;20022;-50
2023/01/30 00:17:18;;;;;;;;;;;20.80;43.90;;;;;;6104845;29;19934;-49
2023/01/30 00:20:19;;;;;;;;;;;20.40;43.80;;;;;;6105030;29;20402;-52
2023/01/30 00:23:21;;;;;;;;;;;19.80;43.40;;;;;;6104827;29;20410;-48
2023/01/30 00:26:23;;;;;;;;;;;20.40;43.70;;;;;;6105015;29;19934;-48
2023/01/30 00:29:24;;;;;;;;;;;20.00;43.50;;;;;;6105218;29;19950;-51
2023/01/30 00:32:26;;;;;;;;;;;20.00;43.50;;;;;;6104580;29;19927;-49
2023/01/30 00:35:27;;;;;;;;;;;20.00;43.60;;;;;;6104675;29;19938;-49
2023/01/30 00:38:29;;;;;;;;;;;20.10;43.60;;;;;;6104814;29;19927;-49
2023/01/30 00:47:53;;;;;;;;;;;20.40;43.50;;;;;;6104897;29;19927;-50
2023/01/30 00:50:55;;;;;;;;;;;20.10;43.60;;;;;;6104622;29;19934;-49
2023/01/30 00:53:56;;;;;;;;;;;19.80;43.60;;;;;;6104416;29;19927;-50
2023/01/30 00:56:58;;;;;;;;;;;20.60;43.90;;;;;;6104796;29;19931;-49
2023/01/30 00:59:59;;;;;;;;;;;19.90;43.50;;;;;;6103233;29;19934;-50
2023/01/30 01:03:01;;;;;;;;;;;19.90;43.60;;;;;;6104335;29;19950;-46
2023/01/30 01:06:02;;;;;;;;;;;20.50;44.00;;;;;;6104629;29;19927;-49
2023/01/30 01:09:05;;;;;;;;;;;20.10;43.60;;;;;;6105216;29;19927;-48
2023/01/30 01:12:06;;;;;;;;;;;20.00;43.20;;;;;;6103054;29;20272;-49
2023/01/30 01:15:07;;;;;;;;;;;20.30;43.90;;;;;;6104316;29;19931;-50
2023/01/30 01:18:09;;;;;;;;;;;20.30;43.80;;;;;;6104121;29;19927;-48
2023/01/30 01:21:10;;;;;;;;;;;19.90;43.60;;;;;;6103872;29;20403;-52
2023/01/30 01:24:13;;;;;;;;;;;19.90;43.60;;;;;;6103946;29;20014;-50
2023/01/30 01:27:14;;;;;;;;;;;20.10;43.80;;;;;;6103124;29;19935;-48
2023/01/30 01:30:16;;;;;;;;;;;19.90;43.60;;;;;;6103802;29;19934;-51
2023/01/30 01:33:18;;;;;;;;;;;19.90;43.60;;;;;;6104839;29;19966;-51
2023/01/30 01:36:19;;;;;;;;;;;20.80;44.30;;;;;;6103574;29;19931;-50
2023/01/30 01:42:54;;;;;;;;;;;19.90;43.60;;;;;;6104186;29;19934;-49
2023/01/30 01:45:57;;;;;;;;;;;20.30;43.70;;;;;;6103829;29;20248;-50
2023/01/30 01:49:02;;;;;;;;;;;19.60;43.50;;;;;;6103597;29;20395;-51
2023/01/30 01:52:04;;;;;;;;;;;20.10;43.70;;;;;;6102360;29;19939;-47
2023/01/30 01:55:07;;;;;;;;;;;19.90;44.40;;;;;;6103581;29;19950;-50
2023/01/30 01:58:10;;;;;;;;;;;19.90;43.60;;;;;;6103211;29;19931;-50
2023/01/30 02:01:11;;;;;;;;;;;20.00;43.80;;;;;;6103418;29;19979;-49
2023/01/30 02:05:00;;;;;;;;;;;20.00;43.80;;;;;;6103344;29;20022;-47
2023/01/30 02:07:36;;;;;;;;;;;20.70;44.20;;;;;;6103234;29;19958;-51
2023/01/30 02:10:42;;;;;;;;;;;20.10;43.40;;;;;;6102768;29;20394;-45
2023/01/30 02:13:43;;;;;;;;;;;19.90;43.70;;;;;;6103393;29;19974;-50
2023/01/30 02:16:45;;;;;;;;;;;20.10;44.20;;;;;;6103064;29;19927;-48
2023/01/30 02:19:50;;;;;;;;;;;20.10;43.50;;;;;;6126237;23;20026;-47
2023/01/30 02:23:01;;;;;;;;;;;20.10;44.10;;;;;;6102788;29;19926;-48
2023/01/30 02:26:14;;;;;;;;;;;19.80;43.90;;;;;;6102703;29;19967;-49
2023/01/30 02:29:23;;;;;;;;;;;20.10;44.00;;;;;;6102773;29;19927;-49
2023/01/30 02:32:28;;;;;;;;;;;19.90;44.00;;;;;;6101987;29;19927;-49
2023/01/30 02:35:34;;;;;;;;;;;20.30;44.20;;;;;;6103005;29;19927;-49
2023/01/30 02:38:39;;;;;;;;;;;20.40;44.00;;;;;;6104632;29;19950;-51
2023/01/30 02:41:47;;;;;;;;;;;20.20;44.20;;;;;;6106808;29;19927;-50
2023/01/30 02:44:52;;;;;;;;;;;20.00;44.00;;;;;;6107022;29;19927;-51
2023/01/30 02:47:56;;;;;;;;;;;20.30;44.10;;;;;;6106359;29;19927;-50
2023/01/30 02:50:58;;;;;;;;;;;19.90;44.00;;;;;;6106851;29;20368;-47
2023/01/30 02:54:00;;;;;;;;;;;20.20;44.30;;;;;;6106458;29;19934;-50
2023/01/30 02:57:01;;;;;;;;;;;19.80;44.20;;;;;;6106277;29;20383;-52
2023/01/30 03:00:04;;;;;;;;;;;20.30;44.50;;;;;;6106652;29;19927;-47
2023/01/30 03:03:19;;;;;;;;;;;19.90;44.10;;;;;;6105304;29;19935;-50
2023/01/30 03:06:32;;;;;;;;;;;19.90;44.20;;;;;;6106267;29;19965;-50
2023/01/30 03:09:39;;;;;;;;;;;20.40;44.60;;;;;;6106374;29;19934;-50
2023/01/30 03:12:47;;;;;;;;;;;20.20;44.40;;;;;;6082659;29;19927;-48
2023/01/30 03:15:51;;;;;;;;;;;19.90;44.20;;;;;;6081687;29;20423;-49
2023/01/30 03:18:53;;;;;;;;;;;20.20;44.50;;;;;;6082871;29;19928;-47
2023/01/30 03:21:55;;;;;;;;;;;19.80;44.50;;;;;;6083310;29;19943;-47
2023/01/30 03:24:57;;;;;;;;;;;20.40;44.70;;;;;;6082961;29;19927;-47
2023/01/30 03:27:58;;;;;;;;;;;20.10;44.60;;;;;;6082748;29;20034;-49
2023/01/30 03:31:00;;;;;;;;;;;20.30;44.50;;;;;;6082538;29;19927;-47
2023/01/30 03:34:03;;;;;;;;;;;20.60;45.00;;;;;;6082847;29;20001;-46
2023/01/30 03:37:06;;;;;;;;;;;20.10;44.60;;;;;;6082862;29;19928;-47
2023/01/30 03:40:10;;;;;;;;;;;20.10;44.50;;;;;;6082398;29;20031;-48
2023/01/30 03:43:12;;;;;;;;;;;20.30;44.60;;;;;;6082725;29;19983;-46
2023/01/30 03:46:13;;;;;;;;;;;19.80;44.70;;;;;;6083010;29;19927;-47
2023/01/30 03:49:15;;;;;;;;;;;19.90;44.60;;;;;;6081433;29;19927;-50
2023/01/30 03:52:16;;;;;;;;;;;19.90;44.60;;;;;;6082457;29;20296;-48
2023/01/30 03:55:18;;;;;;;;;;;20.00;44.60;;;;;;6082811;29;19938;-48
2023/01/30 03:58:20;;;;;;;;;;;20.10;44.70;;;;;;6081989;29;19927;-46
2023/01/30 04:01:21;;;;;;;;;;;19.90;44.80;;;;;;6082225;29;19927;-48
2023/01/30 04:04:23;;;;;;;;;;;19.80;44.70;;;;;;6082036;29;19928;-50
2023/01/30 04:07:27;;;;;;;;;;;20.40;45.10;;;;;;6081854;29;20411;-49
2023/01/30 04:10:28;;;;;;;;;;;20.70;45.10;;;;;;6082167;29;20026;-48
2023/01/30 04:13:30;;;;;;;;;;;20.30;45.00;;;;;;6082827;29;19932;-46
2023/01/30 04:16:32;;;;;;;;;;;19.90;44.80;;;;;;6086187;29;19927;-45
2023/01/30 04:19:54;;;;;;;;;;;20.20;45.60;;;;;;6097527;29;19934;-50
2023/01/30 04:22:55;;;;;;;;;;;20.00;45.40;;;;;;6099088;29;19962;-44
2023/01/30 04:25:58;;;;;;;;;;;20.20;45.60;;;;;;6098010;29;19931;-47
2023/01/30 04:29:01;;;;;;;;;;;20.20;45.80;;;;;;6091647;29;20391;-46
2023/01/30 04:32:03;;;;;;;;;;;20.10;45.60;;;;;;6091711;29;19928;-47
2023/01/30 04:35:09;;;;;;;;;;;19.90;45.40;;;;;;6092057;29;19939;-46
2023/01/30 04:38:10;;;;;;;;;;;20.30;45.60;;;;;;6090966;29;20276;-49
2023/01/30 04:41:12;;;;;;;;;;;20.70;45.80;;;;;;6087426;29;19978;-44
2023/01/30 04:44:16;;;;;;;;;;;20.20;45.40;;;;;;6086142;29;19928;-49
2023/01/30 04:47:25;;;;;;;;;;;20.10;45.50;;;;;;6087208;29;19928;-47
2023/01/30 04:50:28;;;;;;;;;;;20.10;45.50;;;;;;6087857;29;20085;-49
2023/01/30 04:53:29;;;;;;;;;;;19.90;45.40;;;;;;6086802;29;19999;-46
2023/01/30 04:56:31;;;;;;;;;;;20.40;45.80;;;;;;6087031;29;19927;-46
2023/01/30 04:59:32;;;;;;;;;;;19.90;45.70;;;;;;6086983;29;19986;-46
2023/01/30 05:02:37;;;;;;;;;;;20.20;45.70;;;;;;6086722;29;19931;-46
2023/01/30 05:05:39;;;;;;;;;;;20.60;46.50;;;;;;6087496;29;20284;-49
2023/01/30 05:08:43;;;;;;;;;;;20.40;45.80;;;;;;6086795;29;20288;-46
2023/01/30 05:11:47;;;;;;;;;;;20.10;45.20;;;;;;6085758;29;19935;-49
2023/01/30 05:14:49;;;;;;;;;;;20.40;46.00;;;;;;6086947;29;19971;-47
2023/01/30 05:17:50;;;;;;;;;;;20.10;45.80;;;;;;6086818;29;19979;-45
2023/01/30 05:20:52;;;;;;;;;;;20.30;46.20;;;;;;6086157;29;19934;-43
2023/01/30 05:23:55;;;;;;;;;;;20.80;46.20;;;;;;6087787;29;19928;-44
2023/01/30 05:26:56;;;;;;;;;;;20.10;45.60;;;;;;6089729;29;19927;-45
2023/01/30 05:29:57;;;;;;;;;;;19.90;45.70;;;;;;6089044;29;19935;-50
2023/01/30 05:32:58;;;;;;;;;;;20.40;45.90;;;;;;6089488;29;19959;-47
2023/01/30 05:36:01;;;;;;;;;;;19.90;45.80;;;;;;6092604;29;19934;-46
2023/01/30 05:39:02;;;;;;;;;;;20.30;45.80;;;;;;6087693;29;19928;-51
2023/01/30 05:42:04;;;;;;;;;;;20.70;45.70;;;;;;6080628;29;19928;-50
2023/01/30 05:45:06;;;;;;;;;;;19.80;45.00;;;;;;6080688;29;20269;-51
2023/01/30 05:48:07;;;;;;;;;;;19.80;45.40;;;;;;6080649;29;19956;-48
2023/01/30 05:51:14;;;;;;;;;;;19.60;45.60;;;;;;6080188;29;19938;-52
2023/01/30 05:54:16;;;;;;;;;;;19.70;45.40;;;;;;6080027;29;19928;-50
2023/01/30 05:57:17;;;;;;;;;;;19.90;45.70;;;;;;6079618;29;19971;-52
2023/01/30 06:00:19;;;;;;;;;;;19.90;45.90;;;;;;6080139;29;19938;-50
2023/01/30 06:03:20;;;;;;;;;;;19.70;45.70;;;;;;6080020;29;19928;-50
2023/01/30 06:06:22;;;;;;;;;;;19.80;45.90;;;;;;6080156;29;19934;-51
2023/01/30 06:09:23;;;;;;;;;;;19.60;45.80;;;;;;6079949;29;19983;-48
2023/01/30 06:12:24;;;;;;;;;;;19.60;45.30;;;;;;6079882;29;19931;-46
2023/01/30 06:15:26;;;;;;;;;;;19.60;45.80;;;;;;6084354;29;19931;-51
2023/01/30 06:18:27;;;;;;;;;;;19.80;46.10;;;;;;6083831;29;19934;-52
2023/01/30 06:21:29;;;;;;;;;;;19.40;45.80;;;;;;6083889;29;19979;-51
2023/01/30 06:24:31;;;;;;;;;;;19.90;45.90;;;;;;6084394;29;20368;-51
2023/01/30 06:27:32;;;;;;;;;;;19.50;45.40;;;;;;6084128;29;20267;-50
2023/01/30 06:30:33;;;;;;;;;;;20.10;46.40;;;;;;6083514;29;20388;-50
2023/01/30 06:33:35;;;;;;;;;;;19.50;45.90;;;;;;6083543;29;19927;-49
2023/01/30 06:36:37;;;;;;;;;;;19.90;46.30;;;;;;6083749;29;19931;-52
2023/01/30 06:39:38;;;;;;;;;;;19.70;46.00;;;;;;6083403;29;20449;-46
2023/01/30 06:42:43;;;;;;;;;;;19.40;46.10;;;;;;6082583;29;19928;-48
2023/01/30 06:45:44;;;;;;;;;;;19.90;46.30;;;;;;6083636;29;19934;-52
2023/01/30 06:48:46;;;;;;;;;;;20.00;46.60;;;;;;6083108;29;19931;-47
2023/01/30 06:51:47;;;;;;;;;;;19.50;46.20;;;;;;6083253;29;20303;-49
2023/01/30 06:54:49;;;;;;;;;;;20.20;46.50;;;;;;6083513;29;20022;-52
2023/01/30 06:58:00;;;;;;;;;;;19.80;46.10;;;;;;6082901;29;20403;-49
2023/01/30 07:01:01;;;;;;;;;;;20.00;46.10;;;;;;6081726;29;19927;-52
2023/01/30 07:04:02;;;;;;;;;;;19.50;45.90;;;;;;6083550;29;19946;-50
2023/01/30 07:07:04;;;;;;;;;;;20.00;46.60;;;;;;6082553;29;20011;-47
2023/01/30 07:10:10;;;;;;;;;;;19.70;46.10;;;;;;6082521;29;19927;-51
2023/01/30 07:13:12;;;;;;;;;;;20.00;45.60;;;;;;6083111;29;19931;-47
2023/01/30 07:16:13;;;;;;;;;;;19.80;46.60;;;;;;6080899;29;20071;-47
2023/01/30 07:19:15;;;;;;;;;;;20.10;46.80;;;;;;6082454;29;20296;-49
2023/01/30 07:22:17;;;;;;;;;;;19.90;46.50;;;;;;6082383;29;19927;-49
2023/01/30 07:25:18;;;;;;;;;;;20.20;46.90;;;;;;6080771;29;20427;-49
2023/01/30 07:28:20;;;;;;;;;;;19.80;46.50;;;;;;6082026;29;20014;-47
2023/01/30 07:31:21;;;;;;;;;;;20.40;47.00;;;;;;6082252;29;20014;-51
2023/01/30 07:34:23;;;;;;;;;;;19.80;46.70;;;;;;6081752;29;19935;-51
2023/01/30 07:37:25;;;;;;;;;;;20.40;47.30;;;;;;6081169;29;20369;-49
2023/01/30 07:40:26;;;;;;;;;;;20.20;47.00;;;;;;6081624;29;19934;-51
2023/01/30 07:43:27;;;;;;;;;;;20.60;47.10;;;;;;6081293;29;19959;-52
2023/01/30 07:46:33;;;;;;;;;;;19.80;46.50;;;;;;6082701;29;19954;-50
2023/01/30 07:49:35;;;;;;;;;;;20.40;47.00;;;;;;6081613;29;19951;-51
2023/01/30 07:52:37;;;;;;;;;;;20.00;46.60;;;;;;6082099;29;20288;-50
2023/01/30 07:55:39;;;;;;;;;;;20.30;46.80;;;;;;6081468;29;20474;-51
2023/01/30 07:58:40;;;;;;;;;;;20.00;46.70;;;;;;6081512;29;20348;-50
2023/01/30 08:01:41;;;;;;;;;;;20.60;47.20;;;;;;6080706;29;19934;-49
2023/01/30 08:04:42;;;;;;;;;;;20.10;46.80;;;;;;6081822;29;19935;-61
2023/01/30 08:07:46;;;;;;;;;;;20.60;45.70;;;;;;6080906;29;19928;-54
2023/01/30 08:10:47;;;;;;;;;;;20.30;45.20;;;;;;6080971;29;20406;-56
2023/01/30 08:13:49;;;;;;;;;;;20.50;44.70;;;;;;6081418;29;19928;-56
2023/01/30 08:16:51;;;;;;;;;;;20.10;45.10;;;;;;6080363;29;19927;-53
2023/01/30 08:19:52;;;;;;;;;;;20.20;44.60;;;;;;6080346;29;19934;-51
2023/01/30 08:22:54;;;;;;;;;;;20.00;44.60;;;;;;6080727;29;19987;-56
2023/01/30 08:25:56;;;;;;;;;;;20.90;45.10;;;;;;6080848;29;19935;-54
2023/01/30 08:28:58;;;;;;;;;;;20.50;44.60;;;;;;6080478;29;19935;-54
2023/01/30 08:32:00;;;;;;;;;;;20.60;44.90;;;;;;6080878;29;20453;-54
2023/01/30 08:35:01;;;;;;;;;;;20.10;44.20;;;;;;6080759;29;19951;-54
2023/01/30 08:38:06;;;;;;;;;;;20.80;44.80;;;;;;6079876;29;19935;-56
2023/01/30 08:41:07;;;;;;;;;;;20.30;44.60;;;;;;6080392;29;20392;-58
2023/01/30 08:44:09;;;;;;;;;;;21.00;45.10;;;;;;6079900;29;20478;-54
2023/01/30 08:47:10;;;;;;;;;;;20.20;44.70;;;;;;6079769;29;19927;-59
2023/01/30 08:50:12;;;;;;;;;;;20.90;44.80;;;;;;6080196;29;19954;-61
2023/01/30 08:53:14;;;;;;;;;;;20.50;44.50;;;;;;6080526;29;19935;-58
2023/01/30 08:56:15;;;;;;;;;;;21.20;45.20;;;;;;6080317;29;20372;-61
2023/01/30 08:59:16;;;;;;;;;;;20.60;44.40;;;;;;6080406;29;19927;-58
2023/01/30 09:02:17;;;;;;;;;;;21.10;45.00;;;;;;6080271;29;19928;-53
2023/01/30 09:05:19;;;;;;;;;;;21.10;44.90;;;;;;6080311;29;19931;-50
2023/01/30 09:08:21;;;;;;;;;;;20.80;44.80;;;;;;6079996;29;20324;-55
2023/01/30 09:11:22;;;;;;;;;;;20.70;44.70;;;;;;6079993;29;20359;-55
2023/01/30 09:14:24;;;;;;;;;;;20.90;44.70;;;;;;6079939;29;19927;-52
2023/01/30 09:17:26;;;;;;;;;;;20.80;44.10;;;;;;6079265;29;22250;-53
2023/01/30 09:20:27;;;;;;;;;;;21.40;45.00;;;;;;6080071;29;19942;-53
2023/01/30 09:23:29;;;;;;;;;;;20.70;44.60;;;;;;6079920;29;19979;-55
2023/01/30 09:26:31;;;;;;;;;;;21.00;45.60;;;;;;6080587;29;20341;-60
2023/01/30 09:29:32;;;;;;;;;;;21.00;44.90;;;;;;6080184;29;20058;-56
2023/01/30 09:32:36;;;;;;;;;;;20.60;44.40;;;;;;6079717;29;20388;-58
2023/01/30 09:35:38;;;;;;;;;;;21.40;45.00;;;;;;6080419;29;19984;-62
2023/01/30 09:38:40;;;;;;;;;;;20.90;44.40;;;;;;6079676;29;19932;-60
2023/01/30 09:41:51;;;;;;;;;;;21.40;44.90;;;;;;6080295;29;19994;-58
2023/01/30 09:45:02;;;;;;;;;;;20.50;44.40;;;;;;6079321;29;19941;-58
2023/01/30 09:48:06;;;;;;;;;;;20.80;44.30;;;;;;6078449;29;19928;-59
2023/01/30 09:51:15;;;;;;;;;;;20.90;44.50;;;;;;6080162;29;20424;-62
2023/01/30 09:54:20;;;;;;;;;;;21.40;44.80;;;;;;6079683;29;19928;-60
2023/01/30 09:57:23;;;;;;;;;;;20.80;44.50;;;;;;6078028;29;20396;-58
2023/01/30 10:00:28;;;;;;;;;;;20.80;43.30;;;;;;6079056;29;19979;-59
2023/01/30 10:03:34;;;;;;;;;;;21.10;44.60;;;;;;6079235;29;19980;-59
2023/01/30 10:06:39;;;;;;;;;;;20.90;44.50;;;;;;6079122;29;20426;-59
2023/01/30 10:09:47;;;;;;;;;;;20.70;44.50;;;;;;6078863;29;19927;-59
2023/01/30 10:12:53;;;;;;;;;;;21.10;44.50;;;;;;6079454;29;19927;-59
2023/01/30 10:16:00;;;;;;;;;;;21.00;44.70;;;;;;6079129;29;19934;-59
2023/01/30 10:19:12;;;;;;;;;;;21.10;44.80;;;;;;6078659;29;19931;-59
2023/01/30 10:22:26;;;;;;;;;;;20.70;44.30;;;;;;6079510;29;19974;-59
2023/01/30 10:25:31;;;;;;;;;;;21.00;45.00;;;;;;6079088;29;19928;-59
2023/01/30 10:28:36;;;;;;;;;;;20.70;44.90;;;;;;6077510;29;19934;-59
2023/01/30 10:31:41;;;;;;;;;;;21.00;45.00;;;;;;6078743;29;19932;-59
2023/01/30 10:34:45;;;;;;;;;;;20.70;45.00;;;;;;6078734;29;19927;-59
2023/01/30 10:37:52;;;;;;;;;;;21.50;45.40;;;;;;6078690;29;19928;-59
2023/01/30 10:40:58;;;;;;;;;;;21.00;45.60;;;;;;6078563;29;19931;-59
2023/01/30 10:44:01;;;;;;;;;;;21.30;45.40;;;;;;6078763;29;19938;-58
2023/01/30 10:47:15;;;;;;;;;;;21.00;45.40;;;;;;6078305;29;20391;-63
2023/01/30 10:50:22;;;;;;;;;;;21.50;45.50;;;;;;6078813;29;19938;-58
2023/01/30 10:53:27;;;;;;;;;;;21.10;45.10;;;;;;6076145;29;19927;-59
2023/01/30 10:56:35;;;;;;;;;;;21.50;45.70;;;;;;6060750;29;19935;-59
2023/01/30 10:59:45;;;;;;;;;;;20.80;45.20;;;;;;6077918;29;19927;-56
2023/01/30 11:03:02;;;;;;;;;;;21.50;45.40;;;;;;6080567;29;20360;-55
2023/01/30 11:06:06;;;;;;;;;;;20.80;45.00;;;;;;6079753;29;20329;-56
2023/01/30 11:09:07;;;;;;;;;;;21.40;45.20;;;;;;6079728;29;19944;-58
2023/01/30 11:12:10;;;;;;;;;;;21.00;44.90;;;;;;6079495;29;19987;-61
2023/01/30 11:15:11;;;;;;;;;;;21.70;45.30;;;;;;6079964;29;19950;-59
2023/01/30 11:18:13;;;;;;;;;;;21.30;45.10;;;;;;6079548;29;19928;-58
2023/01/30 11:21:35;;;;;;;;;;;21.60;45.40;;;;;;6066149;29;19927;-59
2023/01/30 11:24:45;;;;;;;;;;;20.80;45.00;;;;;;6080683;29;20511;-59
2023/01/30 11:27:52;;;;;;;;;;;21.40;45.20;;;;;;6081997;29;19963;-59
2023/01/30 11:30:55;;;;;;;;;;;20.90;45.00;;;;;;6081930;29;19928;-59
2023/01/30 11:34:00;;;;;;;;;;;21.30;45.20;;;;;;6082299;29;19940;-59
2023/01/30 11:37:13;;;;;;;;;;;21.60;45.40;;;;;;6080634;29;19928;-59
2023/01/30 11:40:22;;;;;;;;;;;21.30;45.30;;;;;;6082072;29;19927;-59
2023/01/30 11:43:26;;;;;;;;;;;21.00;45.40;;;;;;6082212;29;20392;-57
2023/01/30 11:46:30;;;;;;;;;;;21.60;45.90;;;;;;6081952;29;20375;-57
2023/01/30 11:49:34;;;;;;;;;;;21.30;45.60;;;;;;6081698;29;19928;-57
2023/01/30 11:53:00;;;;;;;;;;;21.60;45.70;;;;;;6082664;29;20389;-57
2023/01/30 11:56:04;;;;;;;;;;;21.30;45.80;;;;;;6081673;29;19932;-57
2023/01/30 11:59:19;;;;;;;;;;;21.60;46.00;;;;;;6081203;29;20340;-57
2023/01/30 12:02:23;;;;;;;;;;;20.90;45.50;;;;;;6081230;29;20003;-57
2023/01/30 12:05:29;;;;;;;;;;;21.40;45.70;;;;;;6079879;29;20293;-57
2023/01/30 12:08:32;;;;;;;;;;;21.40;45.80;;;;;;6081110;29;19979;-55
2023/01/30 12:11:44;;;;;;;;;;;21.30;45.90;;;;;;6080061;29;19927;-58
2023/01/30 12:14:48;;;;;;;;;;;21.20;45.70;;;;;;6081709;29;19928;-59
2023/01/30 12:17:51;;;;;;;;;;;21.80;46.50;;;;;;6080784;29;19975;-57
2023/01/30 12:20:56;;;;;;;;;;;21.20;46.00;;;;;;6080937;29;19931;-56
2023/01/30 12:24:02;;;;;;;;;;;21.80;46.40;;;;;;6080771;29;19927;-57
2023/01/30 12:27:05;;;;;;;;;;;21.10;45.80;;;;;;6080712;29;19927;-59
2023/01/30 12:30:17;;;;;;;;;;;21.50;46.10;;;;;;6078990;29;20418;-57
2023/01/30 12:33:19;;;;;;;;;;;21.10;45.90;;;;;;6079299;29;20494;-57
2023/01/30 12:36:26;;;;;;;;;;;21.60;46.30;;;;;;6080718;29;20332;-52
2023/01/30 12:39:36;;;;;;;;;;;20.90;45.90;;;;;;6080308;29;19928;-60
2023/01/30 12:42:50;;;;;;;;;;;21.40;46.20;;;;;;6080957;29;20436;-59
2023/01/30 12:45:59;;;;;;;;;;;21.30;45.90;;;;;;6080544;29;19955;-59
2023/01/30 12:49:19;;;;;;;;;;;21.70;46.30;;;;;;6081215;29;19927;-60
2023/01/30 12:52:27;;;;;;;;;;;21.50;46.20;;;;;;6080340;29;19928;-61
2023/01/30 12:55:33;;;;;;;;;;;21.20;46.00;;;;;;6080161;29;19962;-57
2023/01/30 12:58:37;;;;;;;;;;;21.40;46.20;;;;;;6079762;29;20352;-60
2023/01/30 13:01:44;;;;;;;;;;;21.90;46.50;;;;;;6080817;29;19988;-61
2023/01/30 13:04:51;;;;;;;;;;;21.20;46.10;;;;;;6080557;29;19929;-54
2023/01/30 13:08:12;;;;;;;;;;;21.90;46.50;;;;;;6079867;29;19928;-51
2023/01/30 13:11:27;;;;;;;;;;;21.00;46.00;;;;;;6078889;29;20356;-49
2023/01/30 13:14:32;;;;;;;;;;;21.70;46.60;;;;;;6080540;29;19973;-47
2023/01/30 13:17:38;;;;;;;;;;;21.40;46.40;;;;;;6079804;29;19935;-54
2023/01/30 13:20:46;;;;;;;;;;;21.70;46.70;;;;;;6079727;29;20384;-56
2023/01/30 13:23:56;;;;;;;;;;;21.40;46.50;;;;;;6079869;29;19927;-55
2023/01/30 13:26:58;;;;;;;;;;;21.60;46.70;;;;;;6079949;29;20376;-56
2023/01/30 13:30:00;;;;;;;;;;;21.20;46.50;;;;;;6079504;29;19978;-56
2023/01/30 13:33:05;;;;;;;;;;;21.60;46.80;;;;;;6080120;29;20303;-55
2023/01/30 13:36:11;;;;;;;;;;;21.00;47.00;;;;;;6078461;29;19958;-60
2023/01/30 13:39:15;;;;;;;;;;;21.50;46.90;;;;;;6079868;29;19935;-58
2023/01/30 13:42:26;;;;;;;;;;;20.90;46.80;;;;;;6078928;29;19931;-55
2023/01/30 13:45:28;;;;;;;;;;;21.50;46.70;;;;;;6079253;29;19928;-57
2023/01/30 13:48:37;;;;;;;;;;;21.20;46.70;;;;;;6079898;29;19927;-55
2023/01/30 13:51:42;;;;;;;;;;;21.70;46.90;;;;;;6079304;29;19928;-55
2023/01/30 13:54:49;;;;;;;;;;;21.50;46.80;;;;;;6079059;29;19979;-56
2023/01/30 13:57:53;;;;;;;;;;;22.00;47.30;;;;;;6078642;29;20355;-56
2023/01/30 14:00:55;;;;;;;;;;;21.60;46.90;;;;;;6079080;29;19928;-56
2023/01/30 14:04:18;;;;;;;;;;;21.90;47.00;;;;;;6079628;29;19928;-55
2023/01/30 14:07:23;;;;;;;;;;;21.60;47.00;;;;;;6078083;29;19983;-58
2023/01/30 14:10:26;;;;;;;;;;;21.60;46.70;;;;;;6078772;29;19928;-57
2023/01/30 14:13:27;;;;;;;;;;;21.40;46.70;;;;;;6079544;29;19935;-55
2023/01/30 14:16:43;;;;;;;;;;;22.10;47.20;;;;;;6079287;29;20419;-56
2023/01/30 14:19:46;;;;;;;;;;;21.30;46.70;;;;;;6078973;29;19988;-55
2023/01/30 14:22:50;;;;;;;;;;;21.50;46.60;;;;;;6079593;29;20329;-54
2023/01/30 14:25:52;;;;;;;;;;;21.40;47.00;;;;;;6078805;29;19975;-54
2023/01/30 14:28:54;;;;;;;;;;;21.60;47.10;;;;;;6079287;29;19929;-56
2023/01/30 14:31:55;;;;;;;;;;;21.60;46.70;;;;;;6079582;29;19995;-55
2023/01/30 14:35:12;;;;;;;;;;;22.00;47.60;;;;;;6080959;29;19927;-55
2023/01/30 14:38:16;;;;;;;;;;;21.30;47.10;;;;;;6083034;29;20347;-52
2023/01/30 14:41:25;;;;;;;;;;;21.70;47.40;;;;;;6081938;29;19967;-56
2023/01/30 14:44:36;;;;;;;;;;;21.40;47.10;;;;;;6082878;29;19927;-55
2023/01/30 14:47:37;;;;;;;;;;;22.00;47.50;;;;;;6083119;29;19927;-56
2023/01/30 14:50:49;;;;;;;;;;;21.00;46.80;;;;;;6082496;29;19939;-55
2023/01/30 14:53:53;;;;;;;;;;;21.70;47.80;;;;;;6082869;29;20245;-55
2023/01/30 14:56:57;;;;;;;;;;;21.10;47.30;;;;;;6081326;29;19931;-56
2023/01/30 15:00:00;;;;;;;;;;;22.00;47.80;;;;;;6081505;29;19927;-55
2023/01/30 15:03:19;;;;;;;;;;;21.30;47.60;;;;;;6082570;29;19927;-55
2023/01/30 15:06:25;;;;;;;;;;;22.00;48.10;;;;;;6082400;29;20296;-54
2023/01/30 15:09:28;;;;;;;;;;;21.10;47.40;;;;;;6082455;29;20010;-54
2023/01/30 15:12:43;;;;;;;;;;;22.10;48.30;;;;;;6082602;29;19939;-56
2023/01/30 15:15:50;;;;;;;;;;;21.20;47.60;;;;;;6082255;29;19931;-55
2023/01/30 15:19:02;;;;;;;;;;;22.00;48.30;;;;;;6082167;29;19927;-55
2023/01/30 15:22:10;;;;;;;;;;;21.10;47.70;;;;;;6081027;29;19935;-55
2023/01/30 15:25:19;;;;;;;;;;;21.50;47.80;;;;;;6082325;29;19931;-54
2023/01/30 15:28:27;;;;;;;;;;;21.00;47.90;;;;;;6082480;29;19928;-55
2023/01/30 15:31:28;;;;;;;;;;;21.70;48.50;;;;;;6082644;29;19934;-55
2023/01/30 15:34:30;;;;;;;;;;;21.10;47.80;;;;;;6082140;29;19931;-55
2023/01/30 15:37:32;;;;;;;;;;;21.60;48.30;;;;;;6081967;29;19934;-52
2023/01/30 15:40:35;;;;;;;;;;;21.30;48.10;;;;;;6080586;29;20360;-54
2023/01/30 15:43:41;;;;;;;;;;;21.90;48.70;;;;;;6081915;29;19987;-54
2023/01/30 15:46:45;;;;;;;;;;;21.50;48.40;;;;;;6079607;29;19959;-53
2023/01/30 15:49:53;;;;;;;;;;;21.60;48.10;;;;;;6082160;29;19966;-55
2023/01/30 15:52:57;;;;;;;;;;;21.10;48.10;;;;;;6080894;29;19928;-51
2023/01/30 15:56:00;;;;;;;;;;;21.60;48.30;;;;;;6081810;29;19955;-55
2023/01/30 15:59:01;;;;;;;;;;;21.10;48.50;;;;;;6082020;29;19935;-56
2023/01/30 16:02:05;;;;;;;;;;;21.90;48.80;;;;;;6082276;29;19964;-54
2023/01/30 16:05:14;;;;;;;;;;;21.50;48.70;;;;;;6081515;29;19927;-54
2023/01/30 16:08:20;;;;;;;;;;;21.90;48.80;;;;;;6081646;29;19927;-54
2023/01/30 16:11:31;;;;;;;;;;;21.30;48.50;;;;;;6082163;29;19931;-54
2023/01/30 16:14:33;;;;;;;;;;;21.50;49.30;;;;;;6081373;29;20027;-55
2023/01/30 16:17:34;;;;;;;;;;;21.20;48.70;;;;;;6082078;29;19934;-54
2023/01/30 16:20:42;;;;;;;;;;;21.40;48.90;;;;;;6081375;29;19928;-57
2023/01/30 16:24:00;;;;;;;;;;;21.20;48.70;;;;;;6081217;29;20380;-54
2023/01/30 16:27:03;;;;;;;;;;;21.50;48.90;;;;;;6080922;29;19935;-58
2023/01/30 16:30:07;;;;;;;;;;;21.60;49.30;;;;;;6079865;29;20551;-54
2023/01/30 16:33:12;;;;;;;;;;;21.80;48.90;;;;;;6080706;29;19928;-56
2023/01/30 16:36:29;;;;;;;;;;;21.50;48.90;;;;;;6080499;29;19934;-54
2023/01/30 16:39:31;;;;;;;;;;;22.00;49.10;;;;;;6079622;29;19962;-56
2023/01/30 16:42:33;;;;;;;;;;;21.60;49.00;;;;;;6095239;29;19934;-55
2023/01/30 16:45:49;;;;;;;;;;;21.60;49.10;;;;;;6081060;29;19927;-54
2023/01/30 16:48:50;;;;;;;;;;;21.90;49.60;;;;;;6080653;29;19983;-56
2023/01/30 16:51:58;;;;;;;;;;;21.90;49.30;;;;;;6081215;29;20300;-59
2023/01/30 16:55:01;;;;;;;;;;;21.50;48.90;;;;;;6081246;29;20481;-56
2023/01/30 16:58:03;;;;;;;;;;;22.10;49.30;;;;;;6080274;29;19928;-59
2023/01/30 17:01:05;;;;;;;;;;;21.30;49.10;;;;;;6081144;29;20379;-57
2023/01/30 17:04:17;;;;;;;;;;;21.80;49.30;;;;;;6087615;29;19991;-58
2023/01/30 17:10:48;;;;;;;;;;;21.20;50.00;;;;;;6340000;23;20285;-58
2023/01/30 17:14:07;;;;;;;;;;;21.40;50.60;;;;;;6120060;29;19927;-58
2023/01/30 17:17:12;;;;;;;;;;;21.50;50.80;;;;;;6112234;29;20360;-59
2023/01/30 17:20:15;;;;;;;;;;;21.40;50.70;;;;;;6107601;29;19969;-59
2023/01/30 17:23:17;;;;;;;;;;;21.10;50.50;;;;;;6105400;29;19927;-58
2023/01/30 17:26:18;;;;;;;;;;;21.80;51.00;;;;;;6110530;29;19927;-58
2023/01/30 17:29:20;;;;;;;;;;;21.10;52.30;;;;;;6324294;23;19930;-57
2023/01/30 17:39:17;;;;;;;;;;;21.20;66.20;;;;;;6201745;23;19927;-58
2023/01/30 17:42:20;;;;;;;;;;;20.60;65.70;;;;;;6108025;29;20001;-58
2023/01/30 17:45:22;;;;;;;;;;;22.00;66.00;;;;;;6108832;29;19927;-58
2023/01/30 17:48:24;;;;;;;;;;;20.90;64.60;;;;;;6107619;29;20335;-58
2023/01/30 17:51:25;;;;;;;;;;;21.10;64.10;;;;;;6105656;29;19958;-58
2023/01/30 17:54:28;;;;;;;;;;;20.90;64.00;;;;;;6107585;29;19927;-58
2023/01/30 17:57:30;;;;;;;;;;;21.80;63.40;;;;;;6110170;29;19950;-58
2023/01/30 18:00:31;;;;;;;;;;;21.30;63.10;;;;;;6111218;29;19928;-58
2023/01/30 18:03:33;;;;;;;;;;;22.00;62.80;;;;;;6109013;29;19927;-57
2023/01/30 18:06:34;;;;;;;;;;;21.20;62.30;;;;;;6109308;29;19927;-58
2023/01/30 18:09:36;;;;;;;;;;;21.90;62.90;;;;;;6110425;29;19926;-58
2023/01/30 18:12:37;;;;;;;;;;;20.90;60.90;;;;;;6115785;29;19951;-58